sensor_id;sensor_type;location;lat;lon;timestamp;temperature;humidity
6865;DHT22;3471;49.678;8.388;2022-12-19T00:02:12;-0.70;99.90
6865;DHT22;3471;49.678;8.388;2022-12-19T00:04:37;-0.70;99.90
6865;DHT22;3471;49.678;8.388;2022-12-19T00:07:03;-0.70;99.90
6865;DHT22;3471;49.678;8.388;2022-12-19T00:09:28;-0.80;99.90
6865;DHT22;3471;49.678;8.388;2022-12-19T00:11:54;-0.70;99.90
6865;DHT22;3471;49.678;8.388;2022-12-19T00:14:19;-0.70;99.90
6865;DHT22;3471;49.678;8.388;2022-12-19T00:16:45;-0.70;99.90
6865;DHT22;3471;49.678;8.388;2022-12-19T00:19:11;-0.70;99.90
6865;DHT22;3471;49.678;8.388;2022-12-19T00:21:38;-0.70;99.90
6865;DHT22;3471;49.678;8.388;2022-12-19T00:24:05;-0.70;99.90
6865;DHT22;3471;49.678;8.388;2022-12-19T00:26:35;-0.70;99.90
6865;DHT22;3471;49.678;8.388;2022-12-19T00:29:04;-0.70;99.90
6865;DHT22;3471;49.678;8.388;2022-12-19T00:31:32;-0.70;99.90
6865;DHT22;3471;49.678;8.388;2022-12-19T00:33:59;-0.70;99.90
6865;DHT22;3471;49.678;8.388;2022-12-19T00:36:28;-0.70;99.90
6865;DHT22;3471;49.678;8.388;2022-12-19T00:38:55;-0.70;99.90
6865;DHT22;3471;49.678;8.388;2022-12-19T00:41:29;-0.70;99.90
6865;DHT22;3471;49.678;8.388;2022-12-19T00:43:57;-0.70;99.90
6865;DHT22;3471;49.678;8.388;2022-12-19T00:46:24;-0.70;99.90
6865;DHT22;3471;49.678;8.388;2022-12-19T00:48:50;-0.60;99.90
6865;DHT22;3471;49.678;8.388;2022-12-19T00:51:18;-0.60;99.90
6865;DHT22;3471;49.678;8.388;2022-12-19T00:53:46;-0.60;99.90
6865;DHT22;3471;49.678;8.388;2022-12-19T00:56:14;-0.60;99.90
6865;DHT22;3471;49.678;8.388;2022-12-19T00:58:41;-0.60;99.90
6865;DHT22;3471;49.678;8.388;2022-12-19T01:01:10;-0.60;99.90
6865;DHT22;3471;49.678;8.388;2022-12-19T01:03:36;-0.60;99.90
6865;DHT22;3471;49.678;8.388;2022-12-19T01:06:02;-0.60;99.90
6865;DHT22;3471;49.678;8.388;2022-12-19T01:08:27;-0.50;99.90
6865;DHT22;3471;49.678;8.388;2022-12-19T01:10:53;-0.50;99.90
6865;DHT22;3471;49.678;8.388;2022-12-19T01:13:20;-0.50;99.90
6865;DHT22;3471;49.678;8.388;2022-12-19T01:15:46;-0.50;99.90
6865;DHT22;3471;49.678;8.388;2022-12-19T01:18:12;-0.50;99.90
6865;DHT22;3471;49.678;8.388;2022-12-19T01:20:43;-0.50;99.90
6865;DHT22;3471;49.678;8.388;2022-12-19T01:23:12;-0.50;99.90
6865;DHT22;3471;49.678;8.388;2022-12-19T01:25:39;-0.40;99.90
6865;DHT22;3471;49.678;8.388;2022-12-19T01:28:06;-0.40;99.90
6865;DHT22;3471;49.678;8.388;2022-12-19T01:30:33;-0.40;99.90
6865;DHT22;3471;49.678;8.388;2022-12-19T01:32:59;-0.40;99.90
6865;DHT22;3471;49.678;8.388;2022-12-19T01:35:26;-0.40;99.90
6865;DHT22;3471;49.678;8.388;2022-12-19T01:37:52;-0.40;99.90
6865;DHT22;3471;49.678;8.388;2022-12-19T01:40:19;-0.40;99.90
6865;DHT22;3471;49.678;8.388;2022-12-19T01:42:45;-0.30;99.90
6865;DHT22;3471;49.678;8.388;2022-12-19T01:48:06;-0.30;99.90
6865;DHT22;3471;49.678;8.388;2022-12-19T01:53:17;-0.30;99.90
6865;DHT22;3471;49.678;8.388;2022-12-19T01:55:43;-0.30;99.90
6865;DHT22;3471;49.678;8.388;2022-12-19T01:58:10;-0.30;99.90
6865;DHT22;3471;49.678;8.388;2022-12-19T02:00:38;-0.30;99.90
6865;DHT22;3471;49.678;8.388;2022-12-19T02:03:10;-0.30;99.90
6865;DHT22;3471;49.678;8.388;2022-12-19T02:05:38;-0.30;99.90
6865;DHT22;3471;49.678;8.388;2022-12-19T02:08:04;-0.30;99.90
6865;DHT22;3471;49.678;8.388;2022-12-19T02:10:30;-0.30;99.90
6865;DHT22;3471;49.678;8.388;2022-12-19T02:12:56;-0.20;99.90
6865;DHT22;3471;49.678;8.388;2022-12-19T02:15:22;-0.30;99.90
6865;DHT22;3471;49.678;8.388;2022-12-19T02:18:02;-0.20;99.90
6865;DHT22;3471;49.678;8.388;2022-12-19T02:31:28;-0.20;99.90
6865;DHT22;3471;49.678;8.388;2022-12-19T02:37:05;-0.10;99.90
6865;DHT22;3471;49.678;8.388;2022-12-19T02:39:38;-0.10;99.90
6865;DHT22;3471;49.678;8.388;2022-12-19T02:42:09;-0.10;99.90
6865;DHT22;3471;49.678;8.388;2022-12-19T02:44:42;-0.10;99.90
6865;DHT22;3471;49.678;8.388;2022-12-19T02:47:10;-0.10;99.90
6865;DHT22;3471;49.678;8.388;2022-12-19T02:49:37;-0.10;99.90
6865;DHT22;3471;49.678;8.388;2022-12-19T02:54:44;-0.10;99.90
6865;DHT22;3471;49.678;8.388;2022-12-19T03:00:05;-0.10;99.90
6865;DHT22;3471;49.678;8.388;2022-12-19T03:05:56;0.00;99.90
6865;DHT22;3471;49.678;8.388;2022-12-19T03:08:56;0.00;99.90
6865;DHT22;3471;49.678;8.388;2022-12-19T03:11:24;0.00;99.90
6865;DHT22;3471;49.678;8.388;2022-12-19T03:13:57;0.00;99.90
6865;DHT22;3471;49.678;8.388;2022-12-19T03:16:23;0.00;99.90
6865;DHT22;3471;49.678;8.388;2022-12-19T03:18:52;0.10;99.90
6865;DHT22;3471;49.678;8.388;2022-12-19T03:21:33;0.10;99.90
6865;DHT22;3471;49.678;8.388;2022-12-19T03:24:00;0.10;99.90
6865;DHT22;3471;49.678;8.388;2022-12-19T03:26:31;0.10;99.90
6865;DHT22;3471;49.678;8.388;2022-12-19T03:29:14;0.10;99.90
6865;DHT22;3471;49.678;8.388;2022-12-19T03:31:43;0.10;99.90
6865;DHT22;3471;49.678;8.388;2022-12-19T03:34:31;0.10;99.90
6865;DHT22;3471;49.678;8.388;2022-12-19T03:37:02;0.10;99.90
6865;DHT22;3471;49.678;8.388;2022-12-19T03:39:30;0.20;99.90
6865;DHT22;3471;49.678;8.388;2022-12-19T03:41:58;0.20;99.90
6865;DHT22;3471;49.678;8.388;2022-12-19T03:44:42;0.20;99.90
6865;DHT22;3471;49.678;8.388;2022-12-19T03:47:26;0.20;99.90
6865;DHT22;3471;49.678;8.388;2022-12-19T03:49:53;0.20;99.90
6865;DHT22;3471;49.678;8.388;2022-12-19T03:55:15;0.20;99.90
6865;DHT22;3471;49.678;8.388;2022-12-19T03:58:05;0.20;99.90
6865;DHT22;3471;49.678;8.388;2022-12-19T04:00:33;0.20;99.90
6865;DHT22;3471;49.678;8.388;2022-12-19T04:03:00;0.30;99.90
6865;DHT22;3471;49.678;8.388;2022-12-19T04:05:27;0.30;99.90
6865;DHT22;3471;49.678;8.388;2022-12-19T04:07:56;0.30;99.90
6865;DHT22;3471;49.678;8.388;2022-12-19T04:10:25;0.30;99.90
6865;DHT22;3471;49.678;8.388;2022-12-19T04:12:55;0.30;99.90
6865;DHT22;3471;49.678;8.388;2022-12-19T04:15:31;0.30;99.90
6865;DHT22;3471;49.678;8.388;2022-12-19T04:17:58;0.30;99.90
6865;DHT22;3471;49.678;8.388;2022-12-19T04:20:26;0.30;99.90
6865;DHT22;3471;49.678;8.388;2022-12-19T04:23:01;0.40;99.90
6865;DHT22;3471;49.678;8.388;2022-12-19T04:25:32;0.40;99.90
6865;DHT22;3471;49.678;8.388;2022-12-19T04:28:03;0.40;99.90
6865;DHT22;3471;49.678;8.388;2022-12-19T04:30:31;0.40;99.90
6865;DHT22;3471;49.678;8.388;2022-12-19T04:32:57;0.40;99.90
6865;DHT22;3471;49.678;8.388;2022-12-19T04:35:23;0.40;99.90
6865;DHT22;3471;49.678;8.388;2022-12-19T04:37:49;0.40;99.90
6865;DHT22;3471;49.678;8.388;2022-12-19T04:40:15;0.40;99.90
6865;DHT22;3471;49.678;8.388;2022-12-19T04:42:41;0.40;99.90
6865;DHT22;3471;49.678;8.388;2022-12-19T04:45:07;0.40;99.90
6865;DHT22;3471;49.678;8.388;2022-12-19T04:47:32;0.40;99.90
6865;DHT22;3471;49.678;8.388;2022-12-19T04:49:58;0.50;99.90
6865;DHT22;3471;49.678;8.388;2022-12-19T04:52:23;0.50;99.90
6865;DHT22;3471;49.678;8.388;2022-12-19T04:54:49;0.50;99.90
6865;DHT22;3471;49.678;8.388;2022-12-19T04:57:15;0.40;99.90
6865;DHT22;3471;49.678;8.388;2022-12-19T04:59:40;0.40;99.90
6865;DHT22;3471;49.678;8.388;2022-12-19T05:02:06;0.40;99.90
6865;DHT22;3471;49.678;8.388;2022-12-19T05:04:31;0.40;99.90
6865;DHT22;3471;49.678;8.388;2022-12-19T05:06:57;0.40;99.90
6865;DHT22;3471;49.678;8.388;2022-12-19T05:09:22;0.40;99.90
6865;DHT22;3471;49.678;8.388;2022-12-19T05:11:48;0.50;99.90
6865;DHT22;3471;49.678;8.388;2022-12-19T05:14:13;0.50;99.90
6865;DHT22;3471;49.678;8.388;2022-12-19T05:16:40;0.50;99.90
6865;DHT22;3471;49.678;8.388;2022-12-19T05:19:06;0.60;99.90
6865;DHT22;3471;49.678;8.388;2022-12-19T05:21:31;0.60;99.90
6865;DHT22;3471;49.678;8.388;2022-12-19T05:23:57;0.60;99.90
6865;DHT22;3471;49.678;8.388;2022-12-19T05:26:22;0.60;99.90
6865;DHT22;3471;49.678;8.388;2022-12-19T05:28:48;0.70;99.90
6865;DHT22;3471;49.678;8.388;2022-12-19T05:31:17;0.70;99.90
6865;DHT22;3471;49.678;8.388;2022-12-19T05:33:44;0.70;99.90
6865;DHT22;3471;49.678;8.388;2022-12-19T05:36:10;0.70;99.90
6865;DHT22;3471;49.678;8.388;2022-12-19T05:38:36;0.70;99.90
6865;DHT22;3471;49.678;8.388;2022-12-19T05:41:10;0.70;99.90
6865;DHT22;3471;49.678;8.388;2022-12-19T05:43:36;0.80;99.90
6865;DHT22;3471;49.678;8.388;2022-12-19T05:46:06;0.80;99.90
6865;DHT22;3471;49.678;8.388;2022-12-19T05:48:32;0.80;99.90
6865;DHT22;3471;49.678;8.388;2022-12-19T05:50:57;0.80;99.90
6865;DHT22;3471;49.678;8.388;2022-12-19T05:53:23;0.80;99.90
6865;DHT22;3471;49.678;8.388;2022-12-19T05:55:48;0.80;99.90
6865;DHT22;3471;49.678;8.388;2022-12-19T05:58:18;0.80;99.90
6865;DHT22;3471;49.678;8.388;2022-12-19T06:00:43;0.80;99.90
6865;DHT22;3471;49.678;8.388;2022-12-19T06:03:09;0.80;99.90
6865;DHT22;3471;49.678;8.388;2022-12-19T06:05:37;0.80;99.90
6865;DHT22;3471;49.678;8.388;2022-12-19T06:08:04;0.80;99.90
6865;DHT22;3471;49.678;8.388;2022-12-19T06:10:29;0.80;99.90
6865;DHT22;3471;49.678;8.388;2022-12-19T06:12:55;0.80;99.90
6865;DHT22;3471;49.678;8.388;2022-12-19T06:15:21;0.90;99.90
6865;DHT22;3471;49.678;8.388;2022-12-19T06:17:46;0.90;99.90
6865;DHT22;3471;49.678;8.388;2022-12-19T06:20:12;0.90;99.90
6865;DHT22;3471;49.678;8.388;2022-12-19T06:22:37;0.90;99.90
6865;DHT22;3471;49.678;8.388;2022-12-19T06:25:03;0.90;99.90
6865;DHT22;3471;49.678;8.388;2022-12-19T06:27:29;1.00;99.90
6865;DHT22;3471;49.678;8.388;2022-12-19T06:29:54;1.00;99.90
6865;DHT22;3471;49.678;8.388;2022-12-19T06:32:20;1.00;99.90
6865;DHT22;3471;49.678;8.388;2022-12-19T06:34:46;1.10;99.90
6865;DHT22;3471;49.678;8.388;2022-12-19T06:37:11;1.10;99.90
6865;DHT22;3471;49.678;8.388;2022-12-19T06:39:37;1.10;99.90
6865;DHT22;3471;49.678;8.388;2022-12-19T06:42:02;1.10;99.90
6865;DHT22;3471;49.678;8.388;2022-12-19T06:44:46;1.10;99.90
6865;DHT22;3471;49.678;8.388;2022-12-19T06:47:12;1.10;99.90
6865;DHT22;3471;49.678;8.388;2022-12-19T06:49:37;1.10;99.90
6865;DHT22;3471;49.678;8.388;2022-12-19T06:52:05;1.10;99.90
6865;DHT22;3471;49.678;8.388;2022-12-19T06:54:30;1.10;99.90
6865;DHT22;3471;49.678;8.388;2022-12-19T06:56:56;1.10;99.90
6865;DHT22;3471;49.678;8.388;2022-12-19T06:59:22;1.10;99.90
6865;DHT22;3471;49.678;8.388;2022-12-19T07:02:00;1.20;99.90
6865;DHT22;3471;49.678;8.388;2022-12-19T07:04:50;1.20;99.90
6865;DHT22;3471;49.678;8.388;2022-12-19T07:07:19;1.20;99.90
6865;DHT22;3471;49.678;8.388;2022-12-19T07:09:44;1.20;99.90
6865;DHT22;3471;49.678;8.388;2022-12-19T07:12:10;1.20;99.90
6865;DHT22;3471;49.678;8.388;2022-12-19T07:14:35;1.20;99.90
6865;DHT22;3471;49.678;8.388;2022-12-19T07:17:01;1.20;99.90
6865;DHT22;3471;49.678;8.388;2022-12-19T07:19:28;1.30;99.90
6865;DHT22;3471;49.678;8.388;2022-12-19T07:21:55;1.30;99.90
6865;DHT22;3471;49.678;8.388;2022-12-19T07:24:21;1.30;99.90
6865;DHT22;3471;49.678;8.388;2022-12-19T07:26:46;1.30;99.90
6865;DHT22;3471;49.678;8.388;2022-12-19T07:29:12;1.40;99.90
6865;DHT22;3471;49.678;8.388;2022-12-19T07:31:38;1.40;99.90
6865;DHT22;3471;49.678;8.388;2022-12-19T07:34:04;1.40;99.90
6865;DHT22;3471;49.678;8.388;2022-12-19T07:36:30;1.40;99.90
6865;DHT22;3471;49.678;8.388;2022-12-19T07:38:55;1.40;99.90
6865;DHT22;3471;49.678;8.388;2022-12-19T07:41:21;1.40;99.90
6865;DHT22;3471;49.678;8.388;2022-12-19T07:43:46;1.40;99.90
6865;DHT22;3471;49.678;8.388;2022-12-19T07:46:12;1.40;99.90
6865;DHT22;3471;49.678;8.388;2022-12-19T07:48:38;1.50;99.90
6865;DHT22;3471;49.678;8.388;2022-12-19T07:51:03;1.50;99.90
6865;DHT22;3471;49.678;8.388;2022-12-19T07:53:30;1.50;99.90
6865;DHT22;3471;49.678;8.388;2022-12-19T07:55:55;1.50;99.90
6865;DHT22;3471;49.678;8.388;2022-12-19T07:58:21;1.50;99.90
6865;DHT22;3471;49.678;8.388;2022-12-19T08:00:57;1.50;99.90
6865;DHT22;3471;49.678;8.388;2022-12-19T08:03:23;1.50;99.90
6865;DHT22;3471;49.678;8.388;2022-12-19T08:05:49;1.60;99.90
6865;DHT22;3471;49.678;8.388;2022-12-19T08:08:15;1.60;99.90
6865;DHT22;3471;49.678;8.388;2022-12-19T08:10:41;1.60;99.90
6865;DHT22;3471;49.678;8.388;2022-12-19T08:13:06;1.60;99.90
6865;DHT22;3471;49.678;8.388;2022-12-19T08:15:32;1.70;99.90
6865;DHT22;3471;49.678;8.388;2022-12-19T08:17:57;1.70;99.90
6865;DHT22;3471;49.678;8.388;2022-12-19T08:20:23;1.70;99.90
6865;DHT22;3471;49.678;8.388;2022-12-19T08:22:49;1.70;99.90
6865;DHT22;3471;49.678;8.388;2022-12-19T08:25:15;1.70;99.90
6865;DHT22;3471;49.678;8.388;2022-12-19T08:27:41;1.70;99.90
6865;DHT22;3471;49.678;8.388;2022-12-19T08:30:07;1.70;99.90
6865;DHT22;3471;49.678;8.388;2022-12-19T08:32:33;1.80;99.90
6865;DHT22;3471;49.678;8.388;2022-12-19T08:34:59;1.80;99.90
6865;DHT22;3471;49.678;8.388;2022-12-19T08:37:24;1.80;99.90
6865;DHT22;3471;49.678;8.388;2022-12-19T08:39:50;1.80;99.90
6865;DHT22;3471;49.678;8.388;2022-12-19T08:42:16;1.80;99.90
6865;DHT22;3471;49.678;8.388;2022-12-19T08:44:41;1.80;99.90
6865;DHT22;3471;49.678;8.388;2022-12-19T08:47:07;1.80;99.90
6865;DHT22;3471;49.678;8.388;2022-12-19T08:49:33;1.80;99.90
6865;DHT22;3471;49.678;8.388;2022-12-19T08:51:59;1.80;99.90
6865;DHT22;3471;49.678;8.388;2022-12-19T08:54:25;1.80;99.90
6865;DHT22;3471;49.678;8.388;2022-12-19T08:56:51;1.80;99.90
6865;DHT22;3471;49.678;8.388;2022-12-19T08:59:17;1.90;99.90
6865;DHT22;3471;49.678;8.388;2022-12-19T09:01:42;1.90;99.90
6865;DHT22;3471;49.678;8.388;2022-12-19T09:04:08;1.90;99.90
6865;DHT22;3471;49.678;8.388;2022-12-19T09:06:33;1.90;99.90
6865;DHT22;3471;49.678;8.388;2022-12-19T09:08:59;1.90;99.90
6865;DHT22;3471;49.678;8.388;2022-12-19T09:11:25;1.90;99.90
6865;DHT22;3471;49.678;8.388;2022-12-19T09:13:55;1.90;99.90
6865;DHT22;3471;49.678;8.388;2022-12-19T09:16:22;1.90;99.90
6865;DHT22;3471;49.678;8.388;2022-12-19T09:18:50;1.90;99.90
6865;DHT22;3471;49.678;8.388;2022-12-19T09:21:18;1.90;99.90
6865;DHT22;3471;49.678;8.388;2022-12-19T09:23:48;1.90;99.90
6865;DHT22;3471;49.678;8.388;2022-12-19T09:26:14;2.00;99.90
6865;DHT22;3471;49.678;8.388;2022-12-19T09:28:40;2.00;99.90
6865;DHT22;3471;49.678;8.388;2022-12-19T09:31:11;2.00;99.90
6865;DHT22;3471;49.678;8.388;2022-12-19T09:33:37;2.00;99.90
6865;DHT22;3471;49.678;8.388;2022-12-19T09:36:04;2.10;99.90
6865;DHT22;3471;49.678;8.388;2022-12-19T09:38:31;2.10;99.90
6865;DHT22;3471;49.678;8.388;2022-12-19T09:46:14;2.30;99.90
6865;DHT22;3471;49.678;8.388;2022-12-19T09:48:41;2.30;99.90
6865;DHT22;3471;49.678;8.388;2022-12-19T09:51:34;2.40;99.90
6865;DHT22;3471;49.678;8.388;2022-12-19T09:54:19;2.40;99.90
6865;DHT22;3471;49.678;8.388;2022-12-19T09:56:51;2.50;99.90
6865;DHT22;3471;49.678;8.388;2022-12-19T09:59:31;2.50;99.90
6865;DHT22;3471;49.678;8.388;2022-12-19T10:04:37;2.60;99.90
6865;DHT22;3471;49.678;8.388;2022-12-19T10:07:07;2.70;99.90
6865;DHT22;3471;49.678;8.388;2022-12-19T10:09:34;2.70;99.90
6865;DHT22;3471;49.678;8.388;2022-12-19T10:15:07;2.70;99.90
6865;DHT22;3471;49.678;8.388;2022-12-19T10:20:34;2.70;99.90
6865;DHT22;3471;49.678;8.388;2022-12-19T10:23:41;2.70;99.90
6865;DHT22;3471;49.678;8.388;2022-12-19T10:26:32;2.70;99.90
6865;DHT22;3471;49.678;8.388;2022-12-19T10:32:03;2.80;99.90
6865;DHT22;3471;49.678;8.388;2022-12-19T10:34:42;2.80;99.90
6865;DHT22;3471;49.678;8.388;2022-12-19T10:37:29;2.80;99.90
6865;DHT22;3471;49.678;8.388;2022-12-19T10:40:00;2.90;99.90
6865;DHT22;3471;49.678;8.388;2022-12-19T10:42:38;2.90;99.90
6865;DHT22;3471;49.678;8.388;2022-12-19T10:45:12;2.90;99.90
6865;DHT22;3471;49.678;8.388;2022-12-19T10:47:39;2.90;99.90
6865;DHT22;3471;49.678;8.388;2022-12-19T10:50:09;2.90;99.90
6865;DHT22;3471;49.678;8.388;2022-12-19T10:55:39;2.90;99.90
6865;DHT22;3471;49.678;8.388;2022-12-19T10:58:34;2.90;99.90
6865;DHT22;3471;49.678;8.388;2022-12-19T11:01:16;3.00;99.90
6865;DHT22;3471;49.678;8.388;2022-12-19T11:03:50;3.00;99.90
6865;DHT22;3471;49.678;8.388;2022-12-19T11:09:31;3.00;99.90
6865;DHT22;3471;49.678;8.388;2022-12-19T11:14:31;3.00;99.90
6865;DHT22;3471;49.678;8.388;2022-12-19T11:16:58;3.00;99.90
6865;DHT22;3471;49.678;8.388;2022-12-19T11:22:04;3.00;99.90
6865;DHT22;3471;49.678;8.388;2022-12-19T11:24:43;3.00;99.90
6865;DHT22;3471;49.678;8.388;2022-12-19T11:27:40;3.00;99.90
6865;DHT22;3471;49.678;8.388;2022-12-19T11:32:42;3.00;99.90
6865;DHT22;3471;49.678;8.388;2022-12-19T11:35:18;3.10;99.90
6865;DHT22;3471;49.678;8.388;2022-12-19T11:37:57;3.10;99.90
6865;DHT22;3471;49.678;8.388;2022-12-19T11:43:04;3.10;99.90
6865;DHT22;3471;49.678;8.388;2022-12-19T11:45:43;3.10;99.90
6865;DHT22;3471;49.678;8.388;2022-12-19T11:48:19;3.10;99.90
6865;DHT22;3471;49.678;8.388;2022-12-19T11:56:27;3.20;99.90
6865;DHT22;3471;49.678;8.388;2022-12-19T11:59:00;3.20;99.90
6865;DHT22;3471;49.678;8.388;2022-12-19T12:04:44;3.20;99.90
6865;DHT22;3471;49.678;8.388;2022-12-19T12:07:13;3.20;99.90
6865;DHT22;3471;49.678;8.388;2022-12-19T12:09:57;3.20;99.90
6865;DHT22;3471;49.678;8.388;2022-12-19T12:23:37;3.30;99.90
6865;DHT22;3471;49.678;8.388;2022-12-19T12:26:28;3.30;99.90
6865;DHT22;3471;49.678;8.388;2022-12-19T12:42:34;3.50;99.90
6865;DHT22;3471;49.678;8.388;2022-12-19T12:45:26;3.60;99.90
6865;DHT22;3471;49.678;8.388;2022-12-19T12:47:55;3.60;99.90
6865;DHT22;3471;49.678;8.388;2022-12-19T12:50:23;3.60;99.90
6865;DHT22;3471;49.678;8.388;2022-12-19T12:52:53;3.60;99.90
6865;DHT22;3471;49.678;8.388;2022-12-19T12:55:23;3.70;99.90
6865;DHT22;3471;49.678;8.388;2022-12-19T12:57:50;3.70;99.90
6865;DHT22;3471;49.678;8.388;2022-12-19T13:00:26;3.70;99.90
6865;DHT22;3471;49.678;8.388;2022-12-19T13:03:06;3.70;99.90
6865;DHT22;3471;49.678;8.388;2022-12-19T13:05:52;3.70;99.90
6865;DHT22;3471;49.678;8.388;2022-12-19T13:08:37;3.60;99.90
6865;DHT22;3471;49.678;8.388;2022-12-19T13:11:13;3.60;99.90
6865;DHT22;3471;49.678;8.388;2022-12-19T13:13:59;3.60;99.90
6865;DHT22;3471;49.678;8.388;2022-12-19T13:24:57;3.50;99.90
6865;DHT22;3471;49.678;8.388;2022-12-19T13:46:03;3.40;99.90
6865;DHT22;3471;49.678;8.388;2022-12-19T13:48:50;3.40;99.90
6865;DHT22;3471;49.678;8.388;2022-12-19T13:51:16;3.40;99.90
6865;DHT22;3471;49.678;8.388;2022-12-19T13:53:42;3.40;99.90
6865;DHT22;3471;49.678;8.388;2022-12-19T13:56:12;3.30;99.90
6865;DHT22;3471;49.678;8.388;2022-12-19T14:01:20;3.30;99.90
6865;DHT22;3471;49.678;8.388;2022-12-19T14:03:46;3.20;99.90
6865;DHT22;3471;49.678;8.388;2022-12-19T14:06:23;3.20;99.90
6865;DHT22;3471;49.678;8.388;2022-12-19T14:08:52;3.20;99.90
6865;DHT22;3471;49.678;8.388;2022-12-19T14:11:19;3.20;99.90
6865;DHT22;3471;49.678;8.388;2022-12-19T14:14:07;3.10;99.90
6865;DHT22;3471;49.678;8.388;2022-12-19T14:17:06;3.10;99.90
6865;DHT22;3471;49.678;8.388;2022-12-19T14:19:37;3.10;99.90
6865;DHT22;3471;49.678;8.388;2022-12-19T14:22:30;3.10;99.90
6865;DHT22;3471;49.678;8.388;2022-12-19T14:24:57;3.10;99.90
6865;DHT22;3471;49.678;8.388;2022-12-19T14:30:06;3.10;99.90
6865;DHT22;3471;49.678;8.388;2022-12-19T14:32:33;3.10;99.90
6865;DHT22;3471;49.678;8.388;2022-12-19T14:35:05;3.10;99.90
6865;DHT22;3471;49.678;8.388;2022-12-19T14:37:36;3.10;99.90
6865;DHT22;3471;49.678;8.388;2022-12-19T14:40:18;3.10;99.90
6865;DHT22;3471;49.678;8.388;2022-12-19T14:42:45;3.10;99.90
6865;DHT22;3471;49.678;8.388;2022-12-19T14:45:38;3.10;99.90
6865;DHT22;3471;49.678;8.388;2022-12-19T14:48:24;3.10;99.90
6865;DHT22;3471;49.678;8.388;2022-12-19T14:51:00;3.00;99.90
6865;DHT22;3471;49.678;8.388;2022-12-19T14:53:26;3.00;99.90
6865;DHT22;3471;49.678;8.388;2022-12-19T14:56:04;3.00;99.90
6865;DHT22;3471;49.678;8.388;2022-12-19T14:58:36;2.90;99.90
6865;DHT22;3471;49.678;8.388;2022-12-19T15:01:04;2.90;99.90
6865;DHT22;3471;49.678;8.388;2022-12-19T15:03:34;2.80;99.90
6865;DHT22;3471;49.678;8.388;2022-12-19T15:06:14;2.80;99.90
6865;DHT22;3471;49.678;8.388;2022-12-19T15:08:41;2.80;99.90
6865;DHT22;3471;49.678;8.388;2022-12-19T15:11:27;2.70;99.90
6865;DHT22;3471;49.678;8.388;2022-12-19T15:14:12;2.70;99.90
6865;DHT22;3471;49.678;8.388;2022-12-19T15:16:38;2.70;99.90
6865;DHT22;3471;49.678;8.388;2022-12-19T15:19:10;2.70;99.90
6865;DHT22;3471;49.678;8.388;2022-12-19T15:21:36;2.70;99.90
6865;DHT22;3471;49.678;8.388;2022-12-19T15:24:01;2.70;99.90
6865;DHT22;3471;49.678;8.388;2022-12-19T15:26:33;2.60;99.90
6865;DHT22;3471;49.678;8.388;2022-12-19T15:28:59;2.50;99.90
6865;DHT22;3471;49.678;8.388;2022-12-19T15:31:42;2.50;99.90
6865;DHT22;3471;49.678;8.388;2022-12-19T15:36:37;2.50;99.90
6865;DHT22;3471;49.678;8.388;2022-12-19T15:39:02;2.50;99.90
6865;DHT22;3471;49.678;8.388;2022-12-19T15:41:28;2.50;99.90
6865;DHT22;3471;49.678;8.388;2022-12-19T15:43:55;2.40;99.90
6865;DHT22;3471;49.678;8.388;2022-12-19T15:46:23;2.40;99.90
6865;DHT22;3471;49.678;8.388;2022-12-19T15:48:53;2.40;99.90
6865;DHT22;3471;49.678;8.388;2022-12-19T15:51:19;2.40;99.90
6865;DHT22;3471;49.678;8.388;2022-12-19T15:53:44;2.30;99.90
6865;DHT22;3471;49.678;8.388;2022-12-19T15:56:26;2.30;99.90
6865;DHT22;3471;49.678;8.388;2022-12-19T15:58:53;2.30;99.90
6865;DHT22;3471;49.678;8.388;2022-12-19T16:01:20;2.30;99.90
6865;DHT22;3471;49.678;8.388;2022-12-19T16:03:46;2.30;99.90
6865;DHT22;3471;49.678;8.388;2022-12-19T16:06:13;2.30;99.90
6865;DHT22;3471;49.678;8.388;2022-12-19T16:08:39;2.30;99.90
6865;DHT22;3471;49.678;8.388;2022-12-19T16:11:05;2.30;99.90
6865;DHT22;3471;49.678;8.388;2022-12-19T16:13:32;2.30;99.90
6865;DHT22;3471;49.678;8.388;2022-12-19T16:15:59;2.30;99.90
6865;DHT22;3471;49.678;8.388;2022-12-19T16:18:25;2.30;99.90
6865;DHT22;3471;49.678;8.388;2022-12-19T16:20:51;2.30;99.90
6865;DHT22;3471;49.678;8.388;2022-12-19T16:23:17;2.30;99.90
6865;DHT22;3471;49.678;8.388;2022-12-19T16:25:46;2.20;99.90
6865;DHT22;3471;49.678;8.388;2022-12-19T16:28:27;2.30;99.90
6865;DHT22;3471;49.678;8.388;2022-12-19T16:30:57;2.20;99.90
6865;DHT22;3471;49.678;8.388;2022-12-19T16:33:26;2.30;99.90
6865;DHT22;3471;49.678;8.388;2022-12-19T16:35:53;2.30;99.90
6865;DHT22;3471;49.678;8.388;2022-12-19T16:38:20;2.30;99.90
6865;DHT22;3471;49.678;8.388;2022-12-19T16:40:47;2.20;99.90
6865;DHT22;3471;49.678;8.388;2022-12-19T16:43:16;2.20;99.90
6865;DHT22;3471;49.678;8.388;2022-12-19T16:45:44;2.20;99.90
6865;DHT22;3471;49.678;8.388;2022-12-19T16:48:22;2.20;99.90
6865;DHT22;3471;49.678;8.388;2022-12-19T16:50:48;2.20;99.90
6865;DHT22;3471;49.678;8.388;2022-12-19T16:53:15;2.20;99.90
6865;DHT22;3471;49.678;8.388;2022-12-19T16:55:41;2.10;99.90
6865;DHT22;3471;49.678;8.388;2022-12-19T16:58:13;2.10;99.90
6865;DHT22;3471;49.678;8.388;2022-12-19T17:00:40;2.10;99.90
6865;DHT22;3471;49.678;8.388;2022-12-19T17:03:14;2.20;99.90
6865;DHT22;3471;49.678;8.388;2022-12-19T17:05:48;2.20;99.90
6865;DHT22;3471;49.678;8.388;2022-12-19T17:08:13;2.20;99.90
6865;DHT22;3471;49.678;8.388;2022-12-19T17:10:40;2.20;99.90
6865;DHT22;3471;49.678;8.388;2022-12-19T17:13:10;2.20;99.90
6865;DHT22;3471;49.678;8.388;2022-12-19T17:15:37;2.20;99.90
6865;DHT22;3471;49.678;8.388;2022-12-19T17:18:10;2.20;99.90
6865;DHT22;3471;49.678;8.388;2022-12-19T17:20:40;2.20;99.90
6865;DHT22;3471;49.678;8.388;2022-12-19T17:23:15;2.20;99.90
6865;DHT22;3471;49.678;8.388;2022-12-19T17:25:41;2.20;99.90
6865;DHT22;3471;49.678;8.388;2022-12-19T17:28:07;2.20;99.90
6865;DHT22;3471;49.678;8.388;2022-12-19T17:30:34;2.20;99.90
6865;DHT22;3471;49.678;8.388;2022-12-19T17:32:59;2.20;99.90
6865;DHT22;3471;49.678;8.388;2022-12-19T17:35:26;2.20;99.90
6865;DHT22;3471;49.678;8.388;2022-12-19T17:37:55;2.20;99.90
6865;DHT22;3471;49.678;8.388;2022-12-19T17:40:29;2.20;99.90
6865;DHT22;3471;49.678;8.388;2022-12-19T17:42:56;2.20;99.90
6865;DHT22;3471;49.678;8.388;2022-12-19T17:45:24;2.20;99.90
6865;DHT22;3471;49.678;8.388;2022-12-19T17:47:52;2.20;99.90
6865;DHT22;3471;49.678;8.388;2022-12-19T17:50:20;2.30;99.90
6865;DHT22;3471;49.678;8.388;2022-12-19T17:52:46;2.30;99.90
6865;DHT22;3471;49.678;8.388;2022-12-19T17:55:21;2.30;99.90
6865;DHT22;3471;49.678;8.388;2022-12-19T17:57:48;2.30;99.90
6865;DHT22;3471;49.678;8.388;2022-12-19T18:00:15;2.30;99.90
6865;DHT22;3471;49.678;8.388;2022-12-19T18:02:41;2.30;99.90
6865;DHT22;3471;49.678;8.388;2022-12-19T18:05:15;2.30;99.90
6865;DHT22;3471;49.678;8.388;2022-12-19T18:07:43;2.30;99.90
6865;DHT22;3471;49.678;8.388;2022-12-19T18:10:21;2.30;99.90
6865;DHT22;3471;49.678;8.388;2022-12-19T18:12:47;2.30;99.90
6865;DHT22;3471;49.678;8.388;2022-12-19T18:15:15;2.30;99.90
6865;DHT22;3471;49.678;8.388;2022-12-19T18:17:41;2.20;99.90
6865;DHT22;3471;49.678;8.388;2022-12-19T18:20:26;2.20;99.90
6865;DHT22;3471;49.678;8.388;2022-12-19T18:22:53;2.20;99.90
6865;DHT22;3471;49.678;8.388;2022-12-19T18:25:25;2.20;99.90
6865;DHT22;3471;49.678;8.388;2022-12-19T18:27:51;2.20;99.90
6865;DHT22;3471;49.678;8.388;2022-12-19T18:30:18;2.20;99.90
6865;DHT22;3471;49.678;8.388;2022-12-19T18:32:48;2.20;99.90
6865;DHT22;3471;49.678;8.388;2022-12-19T18:35:30;2.20;99.90
6865;DHT22;3471;49.678;8.388;2022-12-19T18:37:58;2.20;99.90
6865;DHT22;3471;49.678;8.388;2022-12-19T18:40:24;2.10;99.90
6865;DHT22;3471;49.678;8.388;2022-12-19T18:42:50;2.10;99.90
6865;DHT22;3471;49.678;8.388;2022-12-19T18:45:18;2.10;99.90